Terminal Aerodrome Forecast
Issued by NWS Shreveport, LA

Home | Current Version | Previous Version | Text Only | Print | Product List | Glossary On
Versions: 1 2 3 4 5 6 7 8 9 10 11 12
000
FTUS44 KSHV 201152
TAFMLU
TAF
KMLU 201152Z 2012/2112 17005KT P6SM OVC050
      TEMPO 2012/2015 OVC025
     FM201500 17006KT P6SM OVC025
     FM201900 17009G15KT P6SM OVC020
     FM210000 16006KT P6SM OVC015
     FM210300 16006KT 5SM BR OVC007=

USA.gov is the U.S. government's official web portal to all federal, state and local government web resources and services.